Time;durP1;ratioP1;P1;durP2;ratioP2;P2;SDS_P1;SDS_P2;PMS_P1;PMS_P2;Temp;Humidity;BMP_temperature;BMP_pressure;BME280_temperature;BME280_humidity;BME280_pressure;Samples;Min_cycle;Max_cycle;Signal;HPM_P1;HPM_P2
2021/09/17 00:01:37;;;;;;;9.52;7.65;;;;;;;19.82;100.00;99721.44;4918704;29;20040;-83
2021/09/17 00:04:04;;;;;;;18.23;9.68;;;;;;;19.73;100.00;99716.22;4918693;29;20103;-82
2021/09/17 00:06:31;;;;;;;13.52;7.80;;;;;;;19.77;100.00;99713.13;4918586;29;20071;-84
2021/09/17 00:08:58;;;;;;;15.95;8.52;;;;;;;19.78;100.00;99712.13;4918739;29;20064;-86
2021/09/17 00:11:25;;;;;;;15.75;9.57;;;;;;;19.77;100.00;99704.34;4916797;29;20059;-84
2021/09/17 00:13:52;;;;;;;18.45;10.55;;;;;;;19.79;100.00;99702.38;4918432;29;20044;-83
2021/09/17 00:16:19;;;;;;;14.45;10.60;;;;;;;19.76;100.00;99695.59;4917788;29;20127;-90
2021/09/17 00:18:46;;;;;;;15.88;11.60;;;;;;;19.75;100.00;99701.00;4918785;29;20407;-83
2021/09/17 00:21:13;;;;;;;18.73;9.75;;;;;;;19.74;100.00;99702.00;4918201;29;20044;-84
2021/09/17 00:23:40;;;;;;;15.02;10.73;;;;;;;19.75;100.00;99701.84;4918502;29;20119;-84
2021/09/17 00:26:07;;;;;;;11.98;10.77;;;;;;;19.77;100.00;99702.53;4909999;29;20507;-85
2021/09/17 00:28:34;;;;;;;15.63;10.82;;;;;;;19.67;100.00;99695.66;4911282;29;20143;-85
2021/09/17 00:31:01;;;;;;;17.70;11.57;;;;;;;19.80;100.00;99696.94;4915760;29;20380;-87
2021/09/17 00:33:29;;;;;;;15.27;9.93;;;;;;;19.87;100.00;99700.66;4916214;29;20055;-86
2021/09/17 00:35:57;;;;;;;23.58;9.30;;;;;;;19.72;100.00;99696.03;4917692;29;20075;-85
2021/09/17 00:38:24;;;;;;;14.80;9.13;;;;;;;19.77;100.00;99691.97;4918110;29;20043;-87
2021/09/17 00:40:51;;;;;;;13.65;9.80;;;;;;;19.75;100.00;99690.44;4916930;29;20080;-86
2021/09/17 00:43:18;;;;;;;15.57;9.27;;;;;;;19.81;100.00;99688.00;4917859;29;20044;-85
2021/09/17 00:45:46;;;;;;;13.70;8.95;;;;;;;19.81;100.00;99680.09;4918018;29;20150;-86
2021/09/17 00:48:14;;;;;;;14.70;8.20;;;;;;;19.88;100.00;99675.88;4917929;29;20072;-86
2021/09/17 00:50:41;;;;;;;13.40;9.52;;;;;;;19.84;100.00;99671.88;4916074;29;20048;-86
2021/09/17 00:53:08;;;;;;;15.80;8.63;;;;;;;19.70;100.00;99668.88;4917141;29;20064;-86
2021/09/17 00:55:35;;;;;;;15.75;8.57;;;;;;;19.70;100.00;99664.44;4917187;29;20056;-86
2021/09/17 00:58:02;;;;;;;16.90;7.70;;;;;;;19.73;100.00;99664.16;4917722;29;20044;-86
2021/09/17 01:00:29;;;;;;;14.68;7.90;;;;;;;19.66;100.00;99652.50;4917240;29;20104;-86
2021/09/17 01:02:56;;;;;;;21.40;7.93;;;;;;;19.66;100.00;99643.75;4918136;29;20103;-86
2021/09/17 01:05:24;;;;;;;16.45;9.00;;;;;;;19.65;100.00;99642.06;4917054;29;20491;-86
2021/09/17 01:07:50;;;;;;;15.20;7.82;;;;;;;19.55;100.00;99634.19;4916505;29;20131;-87
2021/09/17 01:10:17;;;;;;;14.88;8.63;;;;;;;19.49;100.00;99616.25;4917380;29;20071;-85
2021/09/17 01:12:46;;;;;;;13.68;7.45;;;;;;;19.45;100.00;99622.84;4917548;29;20380;-85
2021/09/17 01:15:13;;;;;;;13.07;7.32;;;;;;;19.30;100.00;99609.28;4916116;29;20040;-86
2021/09/17 01:17:42;;;;;;;11.50;7.53;;;;;;;19.30;100.00;99607.47;4917773;29;20137;-85
2021/09/17 01:20:16;;;;;;;9.15;7.40;;;;;;;19.25;100.00;99609.72;4917382;29;20051;-85
2021/09/17 01:22:45;;;;;;;20.52;9.93;;;;;;;19.20;100.00;99611.16;4917663;29;20066;-85
2021/09/17 01:25:15;;;;;;;10.45;7.40;;;;;;;19.14;100.00;99604.66;4916891;29;20055;-86
2021/09/17 01:27:43;;;;;;;8.40;7.07;;;;;;;19.12;100.00;99609.22;4917729;29;20115;-86
2021/09/17 01:30:13;;;;;;;8.25;5.82;;;;;;;19.20;100.00;99619.91;4917588;29;20048;-86
2021/09/17 01:32:43;;;;;;;16.33;7.13;;;;;;;19.24;100.00;99631.84;4917356;29;20044;-86
2021/09/17 01:35:16;;;;;;;11.02;6.10;;;;;;;19.04;100.00;99635.56;4917314;29;20052;-86
2021/09/17 01:37:44;;;;;;;9.55;6.80;;;;;;;19.25;100.00;99641.44;4916672;29;20040;-85
2021/09/17 01:40:12;;;;;;;12.57;6.47;;;;;;;19.24;100.00;99636.31;4917159;29;20103;-87
2021/09/17 01:42:40;;;;;;;9.18;6.07;;;;;;;19.29;100.00;99645.47;4921176;29;20469;-86
2021/09/17 01:45:11;;;;;;;11.93;5.85;;;;;;;19.33;100.00;99645.97;4920900;29;20045;-86
2021/09/17 01:47:38;;;;;;;10.15;6.15;;;;;;;19.30;100.00;99636.53;4921705;29;20040;-87
2021/09/17 01:50:07;;;;;;;9.02;6.20;;;;;;;19.30;100.00;99628.63;4920752;29;20044;-85
2021/09/17 01:52:34;;;;;;;8.70;6.20;;;;;;;19.38;100.00;99618.13;4920154;29;20084;-85
2021/09/17 01:55:02;;;;;;;21.88;6.80;;;;;;;19.35;100.00;99614.97;4920627;29;20099;-85
2021/09/17 01:57:29;;;;;;;10.02;6.35;;;;;;;19.27;100.00;99620.97;4920413;29;20041;-85
2021/09/17 01:59:56;;;;;;;8.85;5.80;;;;;;;19.13;100.00;99610.09;4920664;29;20079;-85
2021/09/17 02:02:23;;;;;;;8.75;6.32;;;;;;;19.03;100.00;99604.84;4919980;29;20048;-86
2021/09/17 02:04:50;;;;;;;14.80;6.72;;;;;;;19.07;100.00;99619.44;4919554;29;20134;-85
2021/09/17 02:07:17;;;;;;;20.05;7.53;;;;;;;19.17;100.00;99612.25;4919020;29;20526;-86
2021/09/17 02:09:44;;;;;;;13.23;6.68;;;;;;;19.11;100.00;99611.03;4920453;29;20051;-87
2021/09/17 02:12:10;;;;;;;10.15;6.57;;;;;;;19.11;100.00;99604.94;4919998;29;20115;-86
2021/09/17 02:14:38;;;;;;;10.32;5.75;;;;;;;19.03;100.00;99599.56;4920431;29;20131;-86
2021/09/17 02:17:05;;;;;;;12.00;7.07;;;;;;;19.04;100.00;99603.88;4920977;29;20044;-86
2021/09/17 02:19:34;;;;;;;14.40;8.75;;;;;;;19.09;100.00;99596.34;4919976;29;20054;-86
2021/09/17 02:22:01;;;;;;;9.93;7.13;;;;;;;19.00;100.00;99598.03;4920603;29;20044;-86
2021/09/17 02:24:28;;;;;;;10.18;7.65;;;;;;;18.97;100.00;99597.50;4920703;29;20052;-87
2021/09/17 02:26:55;;;;;;;9.68;6.70;;;;;;;18.86;100.00;99595.88;4919837;29;20048;-86
2021/09/17 02:29:21;;;;;;;18.02;7.95;;;;;;;18.86;100.00;99595.88;4920056;29;20044;-87
2021/09/17 02:31:49;;;;;;;12.55;9.13;;;;;;;18.89;100.00;99587.66;4919655;29;20044;-87
2021/09/17 02:34:15;;;;;;;14.95;8.90;;;;;;;18.94;100.00;99584.59;4920465;29;20055;-87
2021/09/17 02:36:43;;;;;;;11.75;10.40;;;;;;;18.86;100.00;99577.41;4919708;29;20047;-86
2021/09/17 02:39:11;;;;;;;15.68;10.88;;;;;;;18.79;100.00;99571.84;4919960;29;20040;-86
2021/09/17 02:41:39;;;;;;;15.07;10.38;;;;;;;18.77;100.00;99581.75;4919235;29;20047;-86
2021/09/17 02:44:07;;;;;;;19.83;11.73;;;;;;;18.69;100.00;99584.25;4920086;29;20504;-85
2021/09/17 02:46:34;;;;;;;17.67;11.52;;;;;;;18.80;100.00;99584.09;4919451;29;20051;-86
2021/09/17 02:49:01;;;;;;;19.17;13.98;;;;;;;18.82;100.00;99586.59;4919780;29;20051;-86
2021/09/17 02:51:28;;;;;;;18.73;13.75;;;;;;;18.84;100.00;99582.81;4918490;29;20048;-86
2021/09/17 02:53:55;;;;;;;17.55;13.40;;;;;;;18.75;100.00;99588.97;4919476;29;20068;-85
2021/09/17 02:56:22;;;;;;;26.73;13.90;;;;;;;18.77;100.00;99586.19;4919674;29;20074;-86
2021/09/17 02:58:49;;;;;;;19.15;14.35;;;;;;;18.73;100.00;99585.63;4919934;29;20098;-86
2021/09/17 03:01:16;;;;;;;24.88;15.95;;;;;;;18.71;100.00;99586.78;4919598;29;20053;-86
2021/09/17 03:03:43;;;;;;;16.63;14.85;;;;;;;18.62;100.00;99580.50;4919717;29;20048;-86
2021/09/17 03:06:10;;;;;;;26.92;17.25;;;;;;;18.75;100.00;99582.84;4919533;29;20067;-86
2021/09/17 03:08:37;;;;;;;20.05;16.08;;;;;;;18.78;100.00;99572.00;4919018;29;20044;-87
2021/09/17 03:11:04;;;;;;;22.30;14.88;;;;;;;18.88;100.00;99577.25;4920182;29;20123;-87
2021/09/17 03:13:30;;;;;;;22.75;15.23;;;;;;;18.83;100.00;99569.75;4919611;29;20078;-86
2021/09/17 03:15:57;;;;;;;19.27;14.80;;;;;;;18.89;100.00;99568.34;4920177;29;20068;-87
2021/09/17 03:18:24;;;;;;;17.77;14.43;;;;;;;18.86;100.00;99564.19;4919890;29;20055;-87
2021/09/17 03:20:51;;;;;;;19.08;15.05;;;;;;;18.88;100.00;99571.97;4920290;29;20044;-87
2021/09/17 03:23:20;;;;;;;20.25;15.05;;;;;;;18.88;100.00;99569.31;4920098;29;20071;-86
2021/09/17 03:25:47;;;;;;;19.15;15.52;;;;;;;18.82;100.00;99563.66;4919055;29;20037;-85
2021/09/17 03:28:14;;;;;;;15.55;13.25;;;;;;;18.91;100.00;99572.53;4917824;29;20048;-86
2021/09/17 03:30:41;;;;;;;16.40;13.80;;;;;;;18.94;100.00;99566.94;4918527;29;20048;-86
2021/09/17 03:33:11;;;;;;;17.33;14.40;;;;;;;19.07;100.00;99567.44;4918987;29;20048;-86
2021/09/17 03:35:41;;;;;;;15.25;12.52;;;;;;;19.07;100.00;99580.63;4919435;29;20048;-86
2021/09/17 03:38:08;;;;;;;13.70;9.85;;;;;;;19.11;100.00;99575.88;4919088;29;20138;-86
2021/09/17 03:40:37;;;;;;;14.43;9.93;;;;;;;19.22;100.00;99575.66;4918885;29;20420;-85
2021/09/17 03:43:05;;;;;;;11.60;9.02;;;;;;;19.21;100.00;99568.72;4918496;29;20048;-85
2021/09/17 03:45:34;;;;;;;13.10;9.70;;;;;;;19.25;100.00;99566.63;4917237;29;20051;-85
2021/09/17 03:48:10;;;;;;;17.65;12.68;;;;;;;19.24;100.00;99560.50;4918953;29;20048;-86
2021/09/17 03:50:37;;;;;;;17.67;13.02;;;;;;;19.19;100.00;99554.00;4918874;29;20051;-86
2021/09/17 03:53:05;;;;;;;17.65;12.70;;;;;;;19.32;100.00;99547.38;4917142;29;20100;-85
2021/09/17 03:55:34;;;;;;;17.05;12.32;;;;;;;19.38;100.00;99549.41;4900397;29;20060;-86
2021/09/17 03:58:02;;;;;;;19.10;11.93;;;;;;;19.33;100.00;99546.41;4905451;29;20066;-86
2021/09/17 04:00:29;;;;;;;22.50;13.80;;;;;;;19.18;100.00;99537.34;4918888;29;20052;-85
2021/09/17 04:02:56;;;;;;;16.45;11.45;;;;;;;19.14;100.00;99533.31;4918387;29;20143;-85
2021/09/17 04:05:23;;;;;;;15.23;11.85;;;;;;;19.25;100.00;99527.81;4917862;29;20044;-86
2021/09/17 04:07:50;;;;;;;16.38;11.65;;;;;;;19.29;100.00;99529.19;4918228;29;20044;-87
2021/09/17 04:10:18;;;;;;;16.73;11.63;;;;;;;19.24;100.00;99522.69;4919012;29;20047;-86
2021/09/17 04:12:46;;;;;;;14.32;10.63;;;;;;;19.19;100.00;99517.84;4917820;29;20143;-86
2021/09/17 04:15:14;;;;;;;13.10;9.30;;;;;;;19.22;100.00;99509.63;4916694;29;20044;-86
2021/09/17 04:17:41;;;;;;;12.85;10.52;;;;;;;19.21;100.00;99499.19;4918651;29;20127;-86
2021/09/17 04:20:09;;;;;;;13.20;9.82;;;;;;;19.08;100.00;99502.22;4918038;29;20040;-86
2021/09/17 04:22:36;;;;;;;14.13;8.75;;;;;;;19.09;100.00;99501.22;4918181;29;20044;-86
2021/09/17 04:25:06;;;;;;;15.05;10.20;;;;;;;19.13;100.00;99493.84;4917430;29;20076;-86
2021/09/17 04:27:33;;;;;;;14.73;9.38;;;;;;;18.96;100.00;99490.19;4909938;29;20032;-86
2021/09/17 04:30:00;;;;;;;15.90;8.50;;;;;;;19.03;100.00;99486.81;4917698;29;20052;-86
2021/09/17 04:32:27;;;;;;;16.45;8.05;;;;;;;18.96;100.00;99480.47;4919480;29;20075;-86
2021/09/17 04:34:53;;;;;;;9.52;7.93;;;;;;;18.90;100.00;99472.28;4918387;29;20405;-85
2021/09/17 04:37:20;;;;;;;11.57;8.95;;;;;;;18.80;100.00;99472.34;4917134;29;20491;-86
2021/09/17 04:39:47;;;;;;;21.02;9.73;;;;;;;18.75;100.00;99461.41;4914797;29;20047;-86
2021/09/17 04:42:14;;;;;;;15.77;9.02;;;;;;;18.70;100.00;99459.22;4910018;29;20047;-86
2021/09/17 04:44:43;;;;;;;15.73;8.77;;;;;;;18.58;100.00;99465.63;4916052;29;20735;-85
2021/09/17 04:47:10;;;;;;;20.83;8.45;;;;;;;18.46;100.00;99493.19;4917588;29;20055;-86
2021/09/17 04:49:37;;;;;;;16.80;9.60;;;;;;;18.57;100.00;99522.03;4918032;29;20047;-86
2021/09/17 04:52:04;;;;;;;12.43;8.18;;;;;;;18.64;100.00;99525.75;4917012;29;20048;-86
2021/09/17 04:54:32;;;;;;;12.30;7.57;;;;;;;18.65;100.00;99530.09;4917333;29;20507;-86
2021/09/17 04:57:00;;;;;;;17.58;7.55;;;;;;;18.60;100.00;99534.97;4916802;29;20506;-86
2021/09/17 04:59:27;;;;;;;15.25;10.07;;;;;;;18.55;100.00;99555.69;4917727;29;20044;-86
2021/09/17 05:01:54;;;;;;;11.25;9.15;;;;;;;18.74;100.00;99557.44;4917175;29;20407;-86
2021/09/17 05:04:21;;;;;;;20.65;11.77;;;;;;;18.88;100.00;99561.41;4917055;29;20051;-86
2021/09/17 05:06:48;;;;;;;17.02;10.25;;;;;;;18.91;100.00;99563.75;4918272;29;20043;-86
2021/09/17 05:09:15;;;;;;;18.90;10.80;;;;;;;18.86;100.00;99556.28;4918831;29;20044;-86
2021/09/17 05:11:42;;;;;;;14.40;11.85;;;;;;;18.92;100.00;99558.34;4918662;29;20052;-87
2021/09/17 05:14:08;;;;;;;16.38;12.63;;;;;;;19.14;100.00;99564.19;4926654;29;20044;-86
2021/09/17 05:16:35;;;;;;;15.98;10.73;;;;;;;19.25;100.00;99564.81;4942804;29;20024;-85
2021/09/17 05:19:02;;;;;;;20.92;11.63;;;;;;;19.22;100.00;99570.38;4943776;29;20052;-86
2021/09/17 05:21:29;;;;;;;14.73;11.25;;;;;;;19.17;100.00;99570.00;4942271;29;20016;-85
2021/09/17 05:23:56;;;;;;;12.48;10.80;;;;;;;18.97;100.00;99576.38;4921555;29;20048;-85
2021/09/17 05:26:23;;;;;;;18.83;11.68;;;;;;;19.00;100.00;99562.88;4917905;29;20587;-85
2021/09/17 05:28:50;;;;;;;17.40;11.63;;;;;;;19.18;100.00;99553.19;4914430;29;20493;-85
2021/09/17 05:31:17;;;;;;;20.23;11.38;;;;;;;19.16;100.00;99555.13;4919005;29;20055;-87
2021/09/17 05:33:44;;;;;;;14.95;8.68;;;;;;;19.08;100.00;99555.06;4918776;29;20408;-85
2021/09/17 05:36:10;;;;;;;16.33;11.35;;;;;;;18.95;100.00;99547.47;4916161;29;20372;-89
2021/09/17 05:38:37;;;;;;;15.23;8.43;;;;;;;19.10;100.00;99551.25;4912290;29;20067;-86
2021/09/17 05:41:04;;;;;;;12.50;9.82;;;;;;;19.21;100.00;99546.75;4914959;29;20044;-85
2021/09/17 05:43:31;;;;;;;18.75;8.70;;;;;;;19.34;100.00;99541.97;4913010;29;20040;-84
2021/09/17 05:45:58;;;;;;;16.98;9.70;;;;;;;19.12;100.00;99548.47;4913335;29;20055;-84
2021/09/17 05:48:25;;;;;;;9.63;8.68;;;;;;;19.10;100.00;99558.38;4910687;29;20048;-85
2021/09/17 05:50:52;;;;;;;20.35;10.50;;;;;;;18.96;100.00;99561.50;4909684;29;20060;-84
2021/09/17 05:53:19;;;;;;;20.45;10.75;;;;;;;18.88;100.00;99567.53;4911597;29;20060;-87
2021/09/17 05:55:46;;;;;;;16.40;8.98;;;;;;;19.06;100.00;99560.47;4915221;29;20044;-84
2021/09/17 05:58:13;;;;;;;13.63;9.13;;;;;;;19.15;100.00;99556.13;4913891;29;20040;-86
2021/09/17 06:00:40;;;;;;;13.93;9.68;;;;;;;19.35;100.00;99555.00;4915297;29;20056;-83
2021/09/17 06:03:07;;;;;;;12.88;8.70;;;;;;;19.34;100.00;99563.94;4912373;29;20056;-81
2021/09/17 06:05:34;;;;;;;14.07;8.10;;;;;;;19.37;100.00;99553.03;4904165;29;20048;-82
2021/09/17 06:08:02;;;;;;;11.10;6.30;;;;;;;19.48;100.00;99551.16;4905601;29;20052;-86
2021/09/17 06:10:30;;;;;;;9.43;5.25;;;;;;;19.65;100.00;99558.28;4906441;29;20032;-83
2021/09/17 06:12:57;;;;;;;10.52;5.05;;;;;;;19.81;99.29;99561.06;4907395;29;20430;-85
2021/09/17 06:15:24;;;;;;;16.35;5.55;;;;;;;20.01;96.97;99558.25;4914876;29;20048;-82
2021/09/17 06:17:51;;;;;;;11.63;5.38;;;;;;;20.31;94.63;99549.88;4912170;29;20399;-82
2021/09/17 06:20:18;;;;;;;9.68;4.97;;;;;;;20.38;93.99;99561.50;4906189;29;20505;-81
2021/09/17 06:22:53;;;;;;;9.20;5.05;;;;;;;20.58;92.94;99561.31;4914794;29;20703;-80
2021/09/17 06:25:21;;;;;;;15.77;5.15;;;;;;;20.47;94.59;99564.25;4907031;29;20184;-83
2021/09/17 06:27:49;;;;;;;13.48;5.28;;;;;;;20.69;92.67;99560.22;4903051;29;20047;-81
2021/09/17 06:30:18;;;;;;;12.27;4.95;;;;;;;20.68;93.36;99572.63;4906970;29;20051;-82
2021/09/17 06:32:46;;;;;;;11.60;5.32;;;;;;;20.82;91.68;99564.06;4911129;29;20044;-83
2021/09/17 06:35:13;;;;;;;8.32;3.65;;;;;;;21.13;89.22;99559.06;4913707;29;20674;-83
2021/09/17 06:37:54;;;;;;;6.90;3.47;;;;;;;21.32;86.47;99557.16;4915402;29;20467;-84
2021/09/17 06:40:26;;;;;;;6.55;3.03;;;;;;;21.51;84.79;99561.31;4912726;29;20044;-83
2021/09/17 06:42:55;;;;;;;4.53;3.50;;;;;;;21.41;84.23;99564.13;4914404;29;20083;-87
2021/09/17 06:45:22;;;;;;;6.03;3.15;;;;;;;21.59;83.88;99570.13;4915001;29;20052;-87
2021/09/17 06:47:54;;;;;;;5.35;2.13;;;;;;;21.49;81.88;99577.41;4915480;29;20515;-87
2021/09/17 06:50:23;;;;;;;8.40;3.35;;;;;;;21.42;81.96;99577.25;4911550;29;20519;-87
2021/09/17 06:52:52;;;;;;;3.92;2.05;;;;;;;21.52;79.12;99577.09;4914144;29;20063;-85
2021/09/17 06:55:21;;;;;;;7.32;2.45;;;;;;;21.87;75.50;99568.00;4911437;29;20052;-86
2021/09/17 06:57:58;;;;;;;6.63;2.00;;;;;;;21.58;77.35;99565.84;4914434;29;20048;-85
2021/09/17 07:00:27;;;;;;;5.90;1.75;;;;;;;21.84;75.16;99568.34;4913296;29;20119;-85
2021/09/17 07:02:54;;;;;;;2.30;1.70;;;;;;;21.36;78.09;99569.94;4909613;29;20041;-85
2021/09/17 07:05:24;;;;;;;3.03;1.80;;;;;;;21.11;78.84;99579.59;4916445;29;20044;-84
2021/09/17 07:07:53;;;;;;;4.68;2.00;;;;;;;21.65;76.55;99580.09;4917287;29;20032;-85
2021/09/17 07:10:22;;;;;;;8.55;2.88;;;;;;;21.51;78.45;99582.53;4916235;29;20052;-88
2021/09/17 07:12:49;;;;;;;4.90;1.60;;;;;;;21.16;79.92;99589.72;4910269;29;20044;-91
2021/09/17 07:15:17;;;;;;;6.68;2.50;;;;;;;21.51;78.69;99583.38;4911905;29;20044;-89
2021/09/17 07:17:44;;;;;;;4.45;2.08;;;;;;;21.56;79.97;99585.53;4915370;29;20075;-82
2021/09/17 07:20:11;;;;;;;9.40;2.55;;;;;;;21.83;77.43;99582.56;4914259;29;20279;-81
2021/09/17 07:22:38;;;;;;;5.05;2.13;;;;;;;21.81;77.76;99579.28;4911466;29;20073;-82
2021/09/17 07:25:08;;;;;;;2.22;1.85;;;;;;;21.92;78.36;99581.59;4912215;29;20044;-81
2021/09/17 07:27:36;;;;;;;6.50;2.83;;;;;;;21.73;80.17;99583.72;4912841;29;20048;-81
2021/09/17 07:30:05;;;;;;;5.80;2.30;;;;;;;21.85;77.46;99580.59;4912601;29;20040;-81
2021/09/17 07:32:33;;;;;;;8.40;2.65;;;;;;;21.41;79.71;99575.59;4913435;29;20043;-80
2021/09/17 07:35:00;;;;;;;7.80;3.97;;;;;;;21.49;80.00;99573.94;4913679;29;20443;-81
2021/09/17 07:37:27;;;;;;;3.63;2.50;;;;;;;21.31;80.31;99574.91;4914988;29;20068;-81
2021/09/17 07:39:54;;;;;;;5.75;2.33;;;;;;;21.50;80.17;99576.41;4912323;29;20047;-81
2021/09/17 07:42:21;;;;;;;10.50;3.05;;;;;;;21.49;80.46;99589.84;4912430;29;20406;-82
2021/09/17 07:44:47;;;;;;;13.07;2.70;;;;;;;21.67;80.33;99590.53;4912383;29;20135;-81
2021/09/17 07:47:14;;;;;;;5.28;2.10;;;;;;;21.50;80.81;99591.50;4910846;29;20484;-81
2021/09/17 07:49:42;;;;;;;8.52;2.47;;;;;;;21.37;81.81;99587.50;4910017;29;20040;-81
2021/09/17 07:52:09;;;;;;;12.35;2.10;;;;;;;21.49;81.47;99589.84;4913618;29;20061;-81
2021/09/17 07:54:36;;;;;;;8.40;3.25;;;;;;;21.56;80.04;99591.66;4911360;29;20067;-81
2021/09/17 07:57:03;;;;;;;7.95;2.08;;;;;;;21.78;80.24;99605.28;4909977;29;20040;-81
2021/09/17 07:59:30;;;;;;;6.25;2.60;;;;;;;22.15;78.28;99588.91;4911798;29;20104;-79
2021/09/17 08:01:57;;;;;;;8.93;2.90;;;;;;;21.88;78.41;99592.69;4914661;29;20051;-79
2021/09/17 08:04:24;;;;;;;8.05;2.20;;;;;;;21.75;80.52;99595.84;4912680;29;20055;-78
2021/09/17 08:06:51;;;;;;;8.95;2.90;;;;;;;22.21;78.25;99599.72;4907625;29;20040;-77
2021/09/17 08:09:18;;;;;;;6.70;2.42;;;;;;;22.31;77.56;99591.56;4911203;29;20051;-78
2021/09/17 08:11:45;;;;;;;4.80;2.33;;;;;;;22.39;76.83;99594.22;4909844;29;20089;-77
2021/09/17 08:14:11;;;;;;;7.72;2.78;;;;;;;22.25;77.56;99602.84;4914458;29;20044;-76
2021/09/17 08:16:38;;;;;;;12.52;3.17;;;;;;;22.11;79.29;99598.22;4909177;29;20408;-78
2021/09/17 08:19:06;;;;;;;5.95;2.08;;;;;;;21.95;79.18;99599.84;4914187;29;20126;-78
2021/09/17 08:21:36;;;;;;;6.78;2.55;;;;;;;22.26;80.42;99603.66;4913368;29;20044;-77
2021/09/17 08:24:03;;;;;;;6.68;3.00;;;;;;;22.14;81.12;99605.84;4912622;29;20055;-76
2021/09/17 08:26:30;;;;;;;7.68;3.38;;;;;;;22.36;79.03;99613.13;4912476;29;20036;-76
2021/09/17 08:28:56;;;;;;;14.98;4.05;;;;;;;22.56;78.03;99618.09;4913688;29;20036;-76
2021/09/17 08:31:24;;;;;;;7.90;3.53;;;;;;;21.86;81.38;99619.41;4910948;29;20083;-78
2021/09/17 08:33:51;;;;;;;8.60;3.90;;;;;;;22.35;79.52;99618.59;4913876;29;20040;-78
2021/09/17 08:36:18;;;;;;;9.10;4.20;;;;;;;22.30;80.30;99613.78;4908407;29;20040;-77
2021/09/17 08:38:45;;;;;;;8.70;3.30;;;;;;;22.68;78.13;99614.88;4907965;29;20048;-79
2021/09/17 08:41:17;;;;;;;6.63;3.45;;;;;;;22.76;77.34;99622.03;4916213;29;20063;-79
2021/09/17 08:43:44;;;;;;;9.48;3.08;;;;;;;22.87;75.66;99618.19;4916378;29;20052;-78
2021/09/17 08:46:15;;;;;;;9.75;3.33;;;;;;;22.48;76.00;99625.06;4914037;29;20111;-77
2021/09/17 08:48:50;;;;;;;8.05;2.40;;;;;;;22.47;75.91;99622.56;4916692;29;20048;-78
2021/09/17 08:51:19;;;;;;;7.75;2.63;;;;;;;22.82;71.74;99616.03;4915596;29;20044;-78
2021/09/17 08:53:48;;;;;;;4.93;2.15;;;;;;;22.90;71.31;99617.84;4916008;29;20054;-78
2021/09/17 08:56:17;;;;;;;8.07;3.65;;;;;;;22.77;72.11;99615.72;4916078;29;20048;-79
2021/09/17 08:58:45;;;;;;;3.80;2.60;;;;;;;22.66;71.99;99616.06;4916295;29;20045;-78
2021/09/17 09:01:26;;;;;;;6.45;2.80;;;;;;;22.49;74.32;99616.09;4915955;29;20056;-78
2021/09/17 09:03:57;;;;;;;9.05;3.95;;;;;;;22.46;75.58;99616.44;4916513;29;20447;-78
2021/09/17 09:06:25;;;;;;;9.75;4.25;;;;;;;22.38;76.08;99624.41;4916007;29;20044;-78
2021/09/17 09:08:52;;;;;;;12.35;3.70;;;;;;;22.74;77.60;99624.00;4916425;29;20044;-78
2021/09/17 09:11:27;;;;;;;13.05;5.28;;;;;;;22.32;78.97;99630.41;4916589;29;20044;-78
2021/09/17 09:14:09;;;;;;;6.35;4.70;;;;;;;22.79;77.15;99631.47;4915877;29;20522;-78
2021/09/17 09:16:39;;;;;;;9.00;3.30;;;;;;;22.80;74.66;99627.81;4916571;29;20054;-78
2021/09/17 09:19:22;;;;;;;9.85;4.93;;;;;;;22.12;78.96;99629.06;4916350;29;20048;-77
2021/09/17 09:21:52;;;;;;;6.68;4.03;;;;;;;22.31;78.35;99628.72;4916719;29;20467;-78
2021/09/17 09:24:23;;;;;;;9.73;4.85;;;;;;;22.54;76.34;99636.03;4916421;29;20052;-78
2021/09/17 09:27:07;;;;;;;9.50;3.85;;;;;;;22.43;76.98;99631.88;4916846;29;20044;-77
2021/09/17 09:29:35;;;;;;;8.57;4.30;;;;;;;22.47;76.60;99623.38;4914817;29;20084;-78
2021/09/17 09:32:03;;;;;;;5.72;3.58;;;;;;;22.65;76.24;99627.69;4916400;29;20036;-78
2021/09/17 09:34:53;;;;;;;8.45;3.38;;;;;;;22.64;75.34;99618.09;4915771;29;20048;-77
2021/09/17 09:37:30;;;;;;;9.77;4.13;;;;;;;22.97;74.14;99622.31;4916658;29;20075;-77
2021/09/17 09:40:01;;;;;;;11.73;4.55;;;;;;;22.83;73.91;99623.00;4916033;29;20140;-79
2021/09/17 09:42:36;;;;;;;18.10;6.45;;;;;;;23.20;73.47;99630.38;4916289;29;20052;-78
2021/09/17 09:45:16;;;;;;;9.00;3.95;;;;;;;23.82;69.91;99624.25;4916079;29;20399;-79
2021/09/17 09:47:51;;;;;;;6.65;4.43;;;;;;;24.34;67.98;99617.31;4916366;29;20052;-79
2021/09/17 09:50:23;;;;;;;8.15;3.83;;;;;;;24.13;68.63;99613.53;4915807;29;20365;-79
2021/09/17 09:52:56;;;;;;;8.52;3.92;;;;;;;24.03;69.72;99612.94;4915659;29;20488;-78
2021/09/17 09:55:23;;;;;;;9.82;5.15;;;;;;;23.87;70.10;99610.41;4915137;29;20048;-79
2021/09/17 09:57:51;;;;;;;14.93;4.50;;;;;;;24.42;68.06;99607.44;4914671;29;20515;-79
2021/09/17 10:00:18;;;;;;;9.27;4.18;;;;;;;23.87;70.93;99616.56;4915454;29;20526;-79
2021/09/17 10:02:45;;;;;;;6.13;3.90;;;;;;;23.64;70.44;99613.03;4914665;29;20047;-81
2021/09/17 10:05:16;;;;;;;8.55;4.28;;;;;;;24.08;68.37;99604.41;4912586;29;20448;-79
2021/09/17 10:07:44;;;;;;;10.20;3.90;;;;;;;24.20;68.48;99605.63;4920293;29;20056;-79
2021/09/17 10:10:15;;;;;;;9.52;4.50;;;;;;;23.92;69.27;99603.53;4921026;29;20052;-79
2021/09/17 10:12:44;;;;;;;7.00;3.22;;;;;;;24.21;67.25;99604.63;4918426;29;20465;-77
2021/09/17 10:15:12;;;;;;;12.52;6.22;;;;;;;25.04;64.07;99598.28;4918239;29;20040;-77
2021/09/17 10:17:52;;;;;;;9.73;4.40;;;;;;;24.51;65.78;99597.56;4918295;29;20055;-77
2021/09/17 10:20:20;;;;;;;6.47;3.65;;;;;;;25.74;61.63;99595.03;4918414;29;20044;-77
2021/09/17 10:22:47;;;;;;;7.30;4.18;;;;;;;25.52;62.46;99586.16;4917983;29;20044;-77
2021/09/17 10:25:15;;;;;;;6.68;5.05;;;;;;;24.11;68.22;99590.72;4919765;29;20522;-76
2021/09/17 10:27:45;;;;;;;10.38;4.70;;;;;;;24.29;67.80;99584.09;4939515;29;20059;-78
2021/09/17 10:30:15;;;;;;;7.20;4.40;;;;;;;24.64;66.44;99578.25;4940984;29;20033;-78
2021/09/17 10:32:49;;;;;;;8.18;5.53;;;;;;;24.37;68.25;99587.69;4941711;29;20028;-76
2021/09/17 10:35:19;;;;;;;17.65;5.15;;;;;;;24.89;66.15;99584.13;4940798;29;20079;-77
2021/09/17 10:38:10;;;;;;;10.73;6.55;;;;;;;24.30;69.74;99588.41;4941095;29;20034;-77
2021/09/17 10:40:53;;;;;;;15.23;8.10;;;;;;;24.50;69.92;99580.75;4941631;29;20084;-78
2021/09/17 10:43:26;;;;;;;14.75;8.45;;;;;;;24.07;71.96;99584.09;4927923;29;20496;-77
2021/09/17 10:45:56;;;;;;;14.30;9.50;;;;;;;23.43;74.07;99589.69;4924228;29;20051;-77
2021/09/17 10:48:24;;;;;;;11.35;7.22;;;;;;;23.69;73.54;99587.56;4918096;29;20384;-77
2021/09/17 10:50:54;;;;;;;10.93;7.80;;;;;;;23.49;74.66;99592.50;4917536;29;20048;-78
2021/09/17 10:53:39;;;;;;;12.48;8.98;;;;;;;23.39;75.32;99578.59;4888724;29;1253273;-79
2021/09/17 10:56:11;;;;;;;13.70;9.25;;;;;;;23.69;73.87;99587.56;4917915;29;20070;-78
2021/09/17 10:58:40;;;;;;;17.48;9.68;;;;;;;24.79;69.64;99579.09;4917104;29;20056;-78
2021/09/17 11:01:15;;;;;;;12.48;10.18;;;;;;;24.18;70.48;99575.69;4917073;29;20044;-79
2021/09/17 11:03:45;;;;;;;14.70;9.82;;;;;;;24.88;68.38;99574.50;4916819;29;20036;-77
2021/09/17 11:06:18;;;;;;;17.00;12.27;;;;;;;24.33;70.55;99581.88;4917155;29;20123;-77
2021/09/17 11:08:57;;;;;;;19.38;13.20;;;;;;;24.60;68.75;99576.97;4914892;29;20044;-77
2021/09/17 11:11:40;;;;;;;22.23;11.38;;;;;;;24.83;66.48;99569.72;4913960;29;20041;-76
2021/09/17 11:14:30;;;;;;;16.58;9.35;;;;;;;24.34;69.15;99570.19;4919234;29;20068;-76
2021/09/17 11:16:57;;;;;;;22.38;10.00;;;;;;;24.95;66.40;99568.22;4915403;29;20119;-74
2021/09/17 11:19:24;;;;;;;14.43;9.13;;;;;;;25.70;64.01;99568.88;4904927;29;20044;-75
2021/09/17 11:21:51;;;;;;;11.13;9.90;;;;;;;25.29;63.34;99559.63;4916053;29;20052;-75
2021/09/17 11:24:28;;;;;;;11.80;7.88;;;;;;;25.87;62.33;99551.59;4910320;29;20510;-76
2021/09/17 11:26:57;;;;;;;15.52;12.57;;;;;;;25.41;64.80;99551.97;4911325;29;20096;-77
2021/09/17 11:29:25;;;;;;;15.10;11.60;;;;;;;25.16;64.92;99556.81;4906375;29;20075;-76